sensor_id;sensor_type;location;lat;lon;timestamp;temperature;humidity
19152;DHT22;9708;53.114;9.388;2024-01-10T00:00:15;-5.20;99.90
19152;DHT22;9708;53.114;9.388;2024-01-10T00:02:42;-5.30;99.90
19152;DHT22;9708;53.114;9.388;2024-01-10T00:05:09;-5.30;99.90
19152;DHT22;9708;53.114;9.388;2024-01-10T00:07:37;-5.30;99.90
19152;DHT22;9708;53.114;9.388;2024-01-10T00:10:05;-5.30;99.90
19152;DHT22;9708;53.114;9.388;2024-01-10T00:12:32;-5.30;99.90
19152;DHT22;9708;53.114;9.388;2024-01-10T00:15:02;-5.30;99.90
19152;DHT22;9708;53.114;9.388;2024-01-10T00:17:30;-5.30;99.90
19152;DHT22;9708;53.114;9.388;2024-01-10T00:19:57;-5.30;99.90
19152;DHT22;9708;53.114;9.388;2024-01-10T00:22:24;-5.30;99.90
19152;DHT22;9708;53.114;9.388;2024-01-10T00:24:52;-5.40;99.90
19152;DHT22;9708;53.114;9.388;2024-01-10T00:27:19;-5.40;99.90
19152;DHT22;9708;53.114;9.388;2024-01-10T00:29:46;-5.30;99.90
19152;DHT22;9708;53.114;9.388;2024-01-10T00:32:12;-5.20;99.90
19152;DHT22;9708;53.114;9.388;2024-01-10T00:34:39;-5.20;99.90
19152;DHT22;9708;53.114;9.388;2024-01-10T00:37:06;-5.20;99.90
19152;DHT22;9708;53.114;9.388;2024-01-10T00:39:33;-5.20;99.90
19152;DHT22;9708;53.114;9.388;2024-01-10T00:42:01;-5.20;99.90
19152;DHT22;9708;53.114;9.388;2024-01-10T00:44:28;-5.30;99.90
19152;DHT22;9708;53.114;9.388;2024-01-10T00:46:55;-5.30;99.90
19152;DHT22;9708;53.114;9.388;2024-01-10T00:49:22;-5.20;99.90
19152;DHT22;9708;53.114;9.388;2024-01-10T00:51:48;-5.30;99.90
19152;DHT22;9708;53.114;9.388;2024-01-10T00:54:15;-5.20;99.90
19152;DHT22;9708;53.114;9.388;2024-01-10T00:56:41;-5.30;99.90
19152;DHT22;9708;53.114;9.388;2024-01-10T00:59:10;-5.20;99.90
19152;DHT22;9708;53.114;9.388;2024-01-10T01:01:37;-5.20;99.90
19152;DHT22;9708;53.114;9.388;2024-01-10T01:04:04;-5.20;99.90
19152;DHT22;9708;53.114;9.388;2024-01-10T01:06:30;-5.30;99.90
19152;DHT22;9708;53.114;9.388;2024-01-10T01:08:57;-5.30;99.90
19152;DHT22;9708;53.114;9.388;2024-01-10T01:11:24;-5.30;99.90
19152;DHT22;9708;53.114;9.388;2024-01-10T01:13:51;-5.30;99.90
19152;DHT22;9708;53.114;9.388;2024-01-10T01:16:19;-5.30;99.90
19152;DHT22;9708;53.114;9.388;2024-01-10T01:18:46;-5.30;99.90
19152;DHT22;9708;53.114;9.388;2024-01-10T01:21:13;-5.30;99.90
19152;DHT22;9708;53.114;9.388;2024-01-10T01:23:40;-5.30;99.90
19152;DHT22;9708;53.114;9.388;2024-01-10T01:26:07;-5.20;99.90
19152;DHT22;9708;53.114;9.388;2024-01-10T01:28:34;-5.20;99.90
19152;DHT22;9708;53.114;9.388;2024-01-10T01:31:01;-5.10;99.90
19152;DHT22;9708;53.114;9.388;2024-01-10T01:33:29;-5.00;99.90
19152;DHT22;9708;53.114;9.388;2024-01-10T01:35:56;-5.00;99.90
19152;DHT22;9708;53.114;9.388;2024-01-10T01:38:23;-5.00;99.90
19152;DHT22;9708;53.114;9.388;2024-01-10T01:40:50;-5.10;99.90
19152;DHT22;9708;53.114;9.388;2024-01-10T01:43:20;-5.00;99.90
19152;DHT22;9708;53.114;9.388;2024-01-10T01:45:51;-5.00;99.90
19152;DHT22;9708;53.114;9.388;2024-01-10T01:48:18;-5.00;99.90
19152;DHT22;9708;53.114;9.388;2024-01-10T01:50:49;-5.10;99.90
19152;DHT22;9708;53.114;9.388;2024-01-10T01:53:17;-5.00;99.90
19152;DHT22;9708;53.114;9.388;2024-01-10T01:55:45;-4.90;99.90
19152;DHT22;9708;53.114;9.388;2024-01-10T01:58:12;-4.90;99.90
19152;DHT22;9708;53.114;9.388;2024-01-10T02:00:39;-4.90;99.90
19152;DHT22;9708;53.114;9.388;2024-01-10T02:03:09;-4.90;99.90
19152;DHT22;9708;53.114;9.388;2024-01-10T02:05:36;-4.90;99.90
19152;DHT22;9708;53.114;9.388;2024-01-10T02:08:05;-4.80;99.90
19152;DHT22;9708;53.114;9.388;2024-01-10T02:10:32;-4.80;99.90
19152;DHT22;9708;53.114;9.388;2024-01-10T02:12:59;-4.80;99.90
19152;DHT22;9708;53.114;9.388;2024-01-10T02:15:26;-4.80;99.90
19152;DHT22;9708;53.114;9.388;2024-01-10T02:17:53;-5.00;99.90
19152;DHT22;9708;53.114;9.388;2024-01-10T02:20:20;-5.00;99.90
19152;DHT22;9708;53.114;9.388;2024-01-10T02:22:47;-5.10;99.90
19152;DHT22;9708;53.114;9.388;2024-01-10T02:25:17;-5.20;99.90
19152;DHT22;9708;53.114;9.388;2024-01-10T02:27:44;-5.20;99.90
19152;DHT22;9708;53.114;9.388;2024-01-10T02:30:11;-5.20;99.90
19152;DHT22;9708;53.114;9.388;2024-01-10T02:32:37;-5.30;99.90
19152;DHT22;9708;53.114;9.388;2024-01-10T02:35:04;-5.30;99.90
19152;DHT22;9708;53.114;9.388;2024-01-10T02:37:32;-5.30;99.90
19152;DHT22;9708;53.114;9.388;2024-01-10T02:39:58;-5.30;99.90
19152;DHT22;9708;53.114;9.388;2024-01-10T02:42:27;-5.30;99.90
19152;DHT22;9708;53.114;9.388;2024-01-10T02:44:55;-5.30;99.90
19152;DHT22;9708;53.114;9.388;2024-01-10T02:47:22;-5.30;99.90
19152;DHT22;9708;53.114;9.388;2024-01-10T02:49:49;-5.30;99.90
19152;DHT22;9708;53.114;9.388;2024-01-10T02:52:16;-5.30;99.90
19152;DHT22;9708;53.114;9.388;2024-01-10T02:54:45;-5.20;99.90
19152;DHT22;9708;53.114;9.388;2024-01-10T02:57:12;-5.30;99.90
19152;DHT22;9708;53.114;9.388;2024-01-10T02:59:43;-5.20;99.90
19152;DHT22;9708;53.114;9.388;2024-01-10T03:02:10;-5.20;99.90
19152;DHT22;9708;53.114;9.388;2024-01-10T03:04:37;-5.20;99.90
19152;DHT22;9708;53.114;9.388;2024-01-10T03:07:04;-5.20;99.90
19152;DHT22;9708;53.114;9.388;2024-01-10T03:09:31;-5.30;99.90
19152;DHT22;9708;53.114;9.388;2024-01-10T03:11:58;-5.20;99.90
19152;DHT22;9708;53.114;9.388;2024-01-10T03:14:25;-5.20;99.90
19152;DHT22;9708;53.114;9.388;2024-01-10T03:16:53;-5.20;99.90
19152;DHT22;9708;53.114;9.388;2024-01-10T03:19:20;-5.20;99.90
19152;DHT22;9708;53.114;9.388;2024-01-10T03:21:47;-5.20;99.90
19152;DHT22;9708;53.114;9.388;2024-01-10T03:24:14;-5.20;99.90
19152;DHT22;9708;53.114;9.388;2024-01-10T03:26:41;-5.20;99.90
19152;DHT22;9708;53.114;9.388;2024-01-10T03:29:08;-5.20;99.90
19152;DHT22;9708;53.114;9.388;2024-01-10T03:31:35;-5.20;99.90
19152;DHT22;9708;53.114;9.388;2024-01-10T03:34:04;-5.20;99.90
19152;DHT22;9708;53.114;9.388;2024-01-10T03:36:31;-5.20;99.90
19152;DHT22;9708;53.114;9.388;2024-01-10T03:38:58;-5.20;99.90
19152;DHT22;9708;53.114;9.388;2024-01-10T03:41:25;-5.20;99.90
19152;DHT22;9708;53.114;9.388;2024-01-10T03:43:52;-5.10;99.90
19152;DHT22;9708;53.114;9.388;2024-01-10T03:46:20;-5.00;99.90
19152;DHT22;9708;53.114;9.388;2024-01-10T03:48:46;-5.10;99.90
19152;DHT22;9708;53.114;9.388;2024-01-10T03:51:15;-5.10;99.90
19152;DHT22;9708;53.114;9.388;2024-01-10T03:53:42;-5.10;99.90
19152;DHT22;9708;53.114;9.388;2024-01-10T03:56:10;-5.00;99.90
19152;DHT22;9708;53.114;9.388;2024-01-10T03:58:38;-5.00;99.90
19152;DHT22;9708;53.114;9.388;2024-01-10T04:01:05;-5.00;99.90
19152;DHT22;9708;53.114;9.388;2024-01-10T04:03:32;-5.10;99.90
19152;DHT22;9708;53.114;9.388;2024-01-10T04:06:00;-5.00;99.90
19152;DHT22;9708;53.114;9.388;2024-01-10T04:08:28;-5.00;99.90
19152;DHT22;9708;53.114;9.388;2024-01-10T04:10:55;-5.10;99.90
19152;DHT22;9708;53.114;9.388;2024-01-10T04:13:23;-5.00;99.90
19152;DHT22;9708;53.114;9.388;2024-01-10T04:15:50;-5.00;99.90
19152;DHT22;9708;53.114;9.388;2024-01-10T04:18:16;-5.00;99.90
19152;DHT22;9708;53.114;9.388;2024-01-10T04:20:43;-5.10;99.90
19152;DHT22;9708;53.114;9.388;2024-01-10T04:23:10;-5.20;99.90
19152;DHT22;9708;53.114;9.388;2024-01-10T04:25:38;-5.20;99.90
19152;DHT22;9708;53.114;9.388;2024-01-10T04:28:06;-5.20;99.90
19152;DHT22;9708;53.114;9.388;2024-01-10T04:30:32;-5.20;99.90
19152;DHT22;9708;53.114;9.388;2024-01-10T04:32:59;-5.10;99.90
19152;DHT22;9708;53.114;9.388;2024-01-10T04:35:26;-5.10;99.90
19152;DHT22;9708;53.114;9.388;2024-01-10T04:37:53;-5.30;99.90
19152;DHT22;9708;53.114;9.388;2024-01-10T04:40:20;-5.30;99.90
19152;DHT22;9708;53.114;9.388;2024-01-10T04:42:48;-5.40;99.90
19152;DHT22;9708;53.114;9.388;2024-01-10T04:45:15;-5.40;99.90
19152;DHT22;9708;53.114;9.388;2024-01-10T04:47:42;-5.40;99.90
19152;DHT22;9708;53.114;9.388;2024-01-10T04:50:10;-5.40;99.90
19152;DHT22;9708;53.114;9.388;2024-01-10T04:52:37;-5.40;99.90
19152;DHT22;9708;53.114;9.388;2024-01-10T04:55:05;-5.30;99.90
19152;DHT22;9708;53.114;9.388;2024-01-10T04:57:33;-5.30;99.90
19152;DHT22;9708;53.114;9.388;2024-01-10T05:00:01;-5.30;99.90
19152;DHT22;9708;53.114;9.388;2024-01-10T05:02:28;-5.40;99.90
19152;DHT22;9708;53.114;9.388;2024-01-10T05:04:55;-5.40;99.90
19152;DHT22;9708;53.114;9.388;2024-01-10T05:07:22;-5.40;99.90
19152;DHT22;9708;53.114;9.388;2024-01-10T05:09:49;-5.40;99.90
19152;DHT22;9708;53.114;9.388;2024-01-10T05:12:16;-5.40;99.90
19152;DHT22;9708;53.114;9.388;2024-01-10T05:14:43;-5.40;99.90
19152;DHT22;9708;53.114;9.388;2024-01-10T05:17:11;-5.40;99.90
19152;DHT22;9708;53.114;9.388;2024-01-10T05:19:38;-5.40;99.90
19152;DHT22;9708;53.114;9.388;2024-01-10T05:22:06;-5.30;99.90
19152;DHT22;9708;53.114;9.388;2024-01-10T05:24:32;-5.30;99.90
19152;DHT22;9708;53.114;9.388;2024-01-10T05:27:01;-5.30;99.90
19152;DHT22;9708;53.114;9.388;2024-01-10T05:29:28;-5.20;99.90
19152;DHT22;9708;53.114;9.388;2024-01-10T05:31:55;-5.30;99.90
19152;DHT22;9708;53.114;9.388;2024-01-10T05:34:23;-5.20;99.90
19152;DHT22;9708;53.114;9.388;2024-01-10T05:36:50;-5.20;99.90
19152;DHT22;9708;53.114;9.388;2024-01-10T05:39:17;-5.20;99.90
19152;DHT22;9708;53.114;9.388;2024-01-10T05:41:46;-5.20;99.90
19152;DHT22;9708;53.114;9.388;2024-01-10T05:44:13;-5.20;99.90
19152;DHT22;9708;53.114;9.388;2024-01-10T05:46:40;-5.20;99.90
19152;DHT22;9708;53.114;9.388;2024-01-10T05:49:08;-5.10;99.90
19152;DHT22;9708;53.114;9.388;2024-01-10T05:51:37;-5.00;99.90
19152;DHT22;9708;53.114;9.388;2024-01-10T05:54:04;-5.00;99.90
19152;DHT22;9708;53.114;9.388;2024-01-10T05:56:32;-5.10;99.90
19152;DHT22;9708;53.114;9.388;2024-01-10T05:58:59;-5.20;99.90
19152;DHT22;9708;53.114;9.388;2024-01-10T06:01:26;-5.20;99.90
19152;DHT22;9708;53.114;9.388;2024-01-10T06:03:54;-5.20;99.90
19152;DHT22;9708;53.114;9.388;2024-01-10T06:06:22;-5.20;99.90
19152;DHT22;9708;53.114;9.388;2024-01-10T06:08:50;-5.30;99.90
19152;DHT22;9708;53.114;9.388;2024-01-10T06:11:18;-5.40;99.90
19152;DHT22;9708;53.114;9.388;2024-01-10T06:13:45;-5.30;99.90
19152;DHT22;9708;53.114;9.388;2024-01-10T06:16:11;-5.40;99.90
19152;DHT22;9708;53.114;9.388;2024-01-10T06:18:39;-5.40;99.90
19152;DHT22;9708;53.114;9.388;2024-01-10T06:21:06;-5.40;99.90
19152;DHT22;9708;53.114;9.388;2024-01-10T06:23:33;-5.30;99.90
19152;DHT22;9708;53.114;9.388;2024-01-10T06:26:01;-5.30;99.90
19152;DHT22;9708;53.114;9.388;2024-01-10T06:28:29;-5.40;99.90
19152;DHT22;9708;53.114;9.388;2024-01-10T06:30:56;-5.30;99.90
19152;DHT22;9708;53.114;9.388;2024-01-10T06:33:23;-5.30;99.90
19152;DHT22;9708;53.114;9.388;2024-01-10T06:35:49;-5.40;99.90
19152;DHT22;9708;53.114;9.388;2024-01-10T06:38:16;-5.40;99.90
19152;DHT22;9708;53.114;9.388;2024-01-10T06:40:45;-5.40;99.90
19152;DHT22;9708;53.114;9.388;2024-01-10T06:43:14;-5.40;99.90
19152;DHT22;9708;53.114;9.388;2024-01-10T06:45:41;-5.50;99.90
19152;DHT22;9708;53.114;9.388;2024-01-10T06:48:09;-5.50;99.90
19152;DHT22;9708;53.114;9.388;2024-01-10T06:50:36;-5.50;99.90
19152;DHT22;9708;53.114;9.388;2024-01-10T06:53:03;-5.50;99.90
19152;DHT22;9708;53.114;9.388;2024-01-10T06:55:30;-5.40;99.90
19152;DHT22;9708;53.114;9.388;2024-01-10T06:57:57;-5.30;99.90
19152;DHT22;9708;53.114;9.388;2024-01-10T07:00:25;-5.40;99.90
19152;DHT22;9708;53.114;9.388;2024-01-10T07:02:52;-5.40;99.90
19152;DHT22;9708;53.114;9.388;2024-01-10T07:05:19;-5.40;99.90
19152;DHT22;9708;53.114;9.388;2024-01-10T07:07:46;-5.40;99.90
19152;DHT22;9708;53.114;9.388;2024-01-10T07:10:15;-5.30;99.90
19152;DHT22;9708;53.114;9.388;2024-01-10T07:12:42;-5.40;99.90
19152;DHT22;9708;53.114;9.388;2024-01-10T07:15:09;-5.40;99.90
19152;DHT22;9708;53.114;9.388;2024-01-10T07:17:38;-5.30;99.90
19152;DHT22;9708;53.114;9.388;2024-01-10T07:20:06;-5.40;99.90
19152;DHT22;9708;53.114;9.388;2024-01-10T07:22:34;-5.50;99.90
19152;DHT22;9708;53.114;9.388;2024-01-10T07:25:01;-5.40;99.90
19152;DHT22;9708;53.114;9.388;2024-01-10T07:27:28;-5.40;99.90
19152;DHT22;9708;53.114;9.388;2024-01-10T07:29:55;-5.40;99.90
19152;DHT22;9708;53.114;9.388;2024-01-10T07:32:23;-5.40;99.90
19152;DHT22;9708;53.114;9.388;2024-01-10T07:34:51;-5.40;99.90
19152;DHT22;9708;53.114;9.388;2024-01-10T07:37:18;-5.50;99.90
19152;DHT22;9708;53.114;9.388;2024-01-10T07:39:46;-5.50;99.90
19152;DHT22;9708;53.114;9.388;2024-01-10T07:42:13;-5.30;99.90
19152;DHT22;9708;53.114;9.388;2024-01-10T07:44:40;-5.30;99.90
19152;DHT22;9708;53.114;9.388;2024-01-10T07:47:07;-5.40;99.90
19152;DHT22;9708;53.114;9.388;2024-01-10T07:49:34;-5.30;99.90
19152;DHT22;9708;53.114;9.388;2024-01-10T07:52:03;-5.40;99.90
19152;DHT22;9708;53.114;9.388;2024-01-10T07:54:30;-5.40;99.90
19152;DHT22;9708;53.114;9.388;2024-01-10T07:56:58;-5.50;99.90
19152;DHT22;9708;53.114;9.388;2024-01-10T07:59:24;-5.40;99.90
19152;DHT22;9708;53.114;9.388;2024-01-10T08:01:55;-5.30;99.90
19152;DHT22;9708;53.114;9.388;2024-01-10T08:04:24;-5.10;99.90
19152;DHT22;9708;53.114;9.388;2024-01-10T08:06:51;-5.10;99.90
19152;DHT22;9708;53.114;9.388;2024-01-10T08:09:19;-5.00;99.90
19152;DHT22;9708;53.114;9.388;2024-01-10T08:11:46;-5.00;99.90
19152;DHT22;9708;53.114;9.388;2024-01-10T08:14:14;-5.10;99.90
19152;DHT22;9708;53.114;9.388;2024-01-10T08:16:41;-5.20;99.90
19152;DHT22;9708;53.114;9.388;2024-01-10T08:19:08;-5.20;99.90
19152;DHT22;9708;53.114;9.388;2024-01-10T08:21:35;-5.30;99.90
19152;DHT22;9708;53.114;9.388;2024-01-10T08:24:03;-5.40;99.90
19152;DHT22;9708;53.114;9.388;2024-01-10T08:26:32;-5.30;99.90
19152;DHT22;9708;53.114;9.388;2024-01-10T08:28:59;-5.30;99.90
19152;DHT22;9708;53.114;9.388;2024-01-10T08:31:26;-5.20;99.90
19152;DHT22;9708;53.114;9.388;2024-01-10T08:33:53;-5.30;99.90
19152;DHT22;9708;53.114;9.388;2024-01-10T08:36:19;-5.30;99.90
19152;DHT22;9708;53.114;9.388;2024-01-10T08:38:46;-5.30;99.90
19152;DHT22;9708;53.114;9.388;2024-01-10T08:41:14;-5.20;99.90
19152;DHT22;9708;53.114;9.388;2024-01-10T08:43:42;-5.20;99.90
19152;DHT22;9708;53.114;9.388;2024-01-10T08:46:09;-5.20;99.90
19152;DHT22;9708;53.114;9.388;2024-01-10T08:48:37;-5.10;99.90
19152;DHT22;9708;53.114;9.388;2024-01-10T08:51:05;-5.20;99.90
19152;DHT22;9708;53.114;9.388;2024-01-10T08:53:31;-5.20;99.90
19152;DHT22;9708;53.114;9.388;2024-01-10T08:55:58;-5.20;99.90
19152;DHT22;9708;53.114;9.388;2024-01-10T08:58:25;-5.10;99.90
19152;DHT22;9708;53.114;9.388;2024-01-10T09:00:53;-5.00;99.90
19152;DHT22;9708;53.114;9.388;2024-01-10T09:03:20;-4.90;99.90
19152;DHT22;9708;53.114;9.388;2024-01-10T09:05:47;-4.70;99.90
19152;DHT22;9708;53.114;9.388;2024-01-10T09:08:14;-4.60;99.90
19152;DHT22;9708;53.114;9.388;2024-01-10T09:10:41;-4.60;99.90
19152;DHT22;9708;53.114;9.388;2024-01-10T09:13:08;-4.40;99.90
19152;DHT22;9708;53.114;9.388;2024-01-10T09:15:35;-4.30;99.90
19152;DHT22;9708;53.114;9.388;2024-01-10T09:18:04;-4.50;99.90
19152;DHT22;9708;53.114;9.388;2024-01-10T09:20:31;-4.50;99.90
19152;DHT22;9708;53.114;9.388;2024-01-10T09:22:58;-4.40;99.90
19152;DHT22;9708;53.114;9.388;2024-01-10T09:25:25;-4.40;99.90
19152;DHT22;9708;53.114;9.388;2024-01-10T09:27:52;-4.40;99.90
19152;DHT22;9708;53.114;9.388;2024-01-10T09:30:19;-4.30;99.90
19152;DHT22;9708;53.114;9.388;2024-01-10T09:32:46;-4.10;99.90
19152;DHT22;9708;53.114;9.388;2024-01-10T09:35:15;-4.00;99.90
19152;DHT22;9708;53.114;9.388;2024-01-10T09:37:43;-4.00;99.90
19152;DHT22;9708;53.114;9.388;2024-01-10T09:40:14;-3.80;99.90
19152;DHT22;9708;53.114;9.388;2024-01-10T09:42:41;-3.40;99.90
19152;DHT22;9708;53.114;9.388;2024-01-10T09:45:10;-2.80;99.90
19152;DHT22;9708;53.114;9.388;2024-01-10T09:47:39;-2.00;99.90
19152;DHT22;9708;53.114;9.388;2024-01-10T09:50:08;-1.40;99.90
19152;DHT22;9708;53.114;9.388;2024-01-10T09:52:41;-0.40;99.90
19152;DHT22;9708;53.114;9.388;2024-01-10T09:55:10;0.30;99.90
19152;DHT22;9708;53.114;9.388;2024-01-10T09:57:39;0.20;99.90
19152;DHT22;9708;53.114;9.388;2024-01-10T10:00:09;0.80;99.90
19152;DHT22;9708;53.114;9.388;2024-01-10T10:02:38;0.30;99.90
19152;DHT22;9708;53.114;9.388;2024-01-10T10:05:09;1.40;99.90
19152;DHT22;9708;53.114;9.388;2024-01-10T10:07:50;0.90;99.90
19152;DHT22;9708;53.114;9.388;2024-01-10T10:10:19;0.30;99.90
19152;DHT22;9708;53.114;9.388;2024-01-10T10:12:47;0.10;99.90
19152;DHT22;9708;53.114;9.388;2024-01-10T10:15:16;-0.30;99.90
19152;DHT22;9708;53.114;9.388;2024-01-10T10:17:44;-0.30;99.90
19152;DHT22;9708;53.114;9.388;2024-01-10T10:20:14;-0.50;99.90
19152;DHT22;9708;53.114;9.388;2024-01-10T10:22:59;-0.10;99.90
19152;DHT22;9708;53.114;9.388;2024-01-10T10:25:29;0.50;99.90
19152;DHT22;9708;53.114;9.388;2024-01-10T10:27:56;1.20;99.90
19152;DHT22;9708;53.114;9.388;2024-01-10T10:30:23;0.90;99.90
19152;DHT22;9708;53.114;9.388;2024-01-10T10:32:50;0.80;99.90
19152;DHT22;9708;53.114;9.388;2024-01-10T10:35:18;0.80;99.90
19152;DHT22;9708;53.114;9.388;2024-01-10T10:37:46;1.30;99.90
19152;DHT22;9708;53.114;9.388;2024-01-10T10:40:15;1.80;99.90
19152;DHT22;9708;53.114;9.388;2024-01-10T10:42:44;1.90;99.90
19152;DHT22;9708;53.114;9.388;2024-01-10T10:45:15;1.80;99.90
19152;DHT22;9708;53.114;9.388;2024-01-10T10:47:44;2.50;99.90
19152;DHT22;9708;53.114;9.388;2024-01-10T10:50:13;3.00;99.90
19152;DHT22;9708;53.114;9.388;2024-01-10T10:52:42;3.00;99.90
19152;DHT22;9708;53.114;9.388;2024-01-10T10:55:15;3.10;99.90
19152;DHT22;9708;53.114;9.388;2024-01-10T10:57:44;3.10;99.90
19152;DHT22;9708;53.114;9.388;2024-01-10T11:00:13;3.10;99.90
19152;DHT22;9708;53.114;9.388;2024-01-10T11:02:42;4.00;99.90
19152;DHT22;9708;53.114;9.388;2024-01-10T11:05:09;4.00;99.90
19152;DHT22;9708;53.114;9.388;2024-01-10T11:07:36;3.40;99.90
19152;DHT22;9708;53.114;9.388;2024-01-10T11:10:08;3.50;99.90
19152;DHT22;9708;53.114;9.388;2024-01-10T11:12:55;3.70;99.90
19152;DHT22;9708;53.114;9.388;2024-01-10T11:15:43;3.50;99.90
19152;DHT22;9708;53.114;9.388;2024-01-10T11:18:34;4.00;99.90
19152;DHT22;9708;53.114;9.388;2024-01-10T11:21:19;4.80;99.90
19152;DHT22;9708;53.114;9.388;2024-01-10T11:23:54;4.40;99.90
19152;DHT22;9708;53.114;9.388;2024-01-10T11:26:21;4.10;99.90
19152;DHT22;9708;53.114;9.388;2024-01-10T11:28:50;3.80;99.90
19152;DHT22;9708;53.114;9.388;2024-01-10T11:31:27;3.50;99.90
19152;DHT22;9708;53.114;9.388;2024-01-10T11:33:56;4.00;99.90
19152;DHT22;9708;53.114;9.388;2024-01-10T11:36:23;4.40;99.90
19152;DHT22;9708;53.114;9.388;2024-01-10T11:38:54;3.90;99.90
19152;DHT22;9708;53.114;9.388;2024-01-10T11:41:23;4.20;99.90
19152;DHT22;9708;53.114;9.388;2024-01-10T11:47:07;3.70;99.90
19152;DHT22;9708;53.114;9.388;2024-01-10T11:49:34;4.60;99.90
19152;DHT22;9708;53.114;9.388;2024-01-10T11:52:02;5.00;99.90
19152;DHT22;9708;53.114;9.388;2024-01-10T11:54:39;5.10;99.90
19152;DHT22;9708;53.114;9.388;2024-01-10T11:57:25;4.40;99.90
19152;DHT22;9708;53.114;9.388;2024-01-10T11:59:53;4.00;99.90
19152;DHT22;9708;53.114;9.388;2024-01-10T12:02:22;4.00;99.90
19152;DHT22;9708;53.114;9.388;2024-01-10T12:04:51;4.30;99.90
19152;DHT22;9708;53.114;9.388;2024-01-10T12:07:18;5.10;99.90
19152;DHT22;9708;53.114;9.388;2024-01-10T12:09:46;5.50;99.90
19152;DHT22;9708;53.114;9.388;2024-01-10T12:12:13;5.40;99.90
19152;DHT22;9708;53.114;9.388;2024-01-10T12:14:40;5.10;99.90
19152;DHT22;9708;53.114;9.388;2024-01-10T12:17:08;5.30;99.90
19152;DHT22;9708;53.114;9.388;2024-01-10T12:19:37;5.60;99.90
19152;DHT22;9708;53.114;9.388;2024-01-10T12:22:04;5.30;99.90
19152;DHT22;9708;53.114;9.388;2024-01-10T12:24:31;5.70;99.90
19152;DHT22;9708;53.114;9.388;2024-01-10T12:26:58;5.00;99.90
19152;DHT22;9708;53.114;9.388;2024-01-10T12:29:26;6.20;99.90
19152;DHT22;9708;53.114;9.388;2024-01-10T12:31:53;5.60;99.90
19152;DHT22;9708;53.114;9.388;2024-01-10T12:34:20;4.30;99.90
19152;DHT22;9708;53.114;9.388;2024-01-10T12:36:49;4.20;99.90
19152;DHT22;9708;53.114;9.388;2024-01-10T12:39:20;4.10;99.90
19152;DHT22;9708;53.114;9.388;2024-01-10T12:41:49;4.00;99.90
19152;DHT22;9708;53.114;9.388;2024-01-10T12:44:16;3.70;99.90
19152;DHT22;9708;53.114;9.388;2024-01-10T12:46:52;3.40;99.90
19152;DHT22;9708;53.114;9.388;2024-01-10T12:49:19;1.90;99.90
19152;DHT22;9708;53.114;9.388;2024-01-10T12:51:47;1.10;99.90
19152;DHT22;9708;53.114;9.388;2024-01-10T12:54:15;0.90;99.90
19152;DHT22;9708;53.114;9.388;2024-01-10T12:56:42;0.90;99.90
19152;DHT22;9708;53.114;9.388;2024-01-10T12:59:10;1.00;99.90
19152;DHT22;9708;53.114;9.388;2024-01-10T13:01:37;0.70;99.90
19152;DHT22;9708;53.114;9.388;2024-01-10T13:04:04;0.50;99.90
19152;DHT22;9708;53.114;9.388;2024-01-10T13:06:31;0.20;99.90
19152;DHT22;9708;53.114;9.388;2024-01-10T13:08:58;0.20;99.90
19152;DHT22;9708;53.114;9.388;2024-01-10T13:11:26;0.00;99.90
19152;DHT22;9708;53.114;9.388;2024-01-10T13:13:53;0.00;99.90
19152;DHT22;9708;53.114;9.388;2024-01-10T13:16:20;0.60;99.90
19152;DHT22;9708;53.114;9.388;2024-01-10T13:18:47;1.80;99.90
19152;DHT22;9708;53.114;9.388;2024-01-10T13:21:14;1.60;99.90
19152;DHT22;9708;53.114;9.388;2024-01-10T13:23:40;2.10;99.90
19152;DHT22;9708;53.114;9.388;2024-01-10T13:26:07;2.70;99.90
19152;DHT22;9708;53.114;9.388;2024-01-10T13:28:36;2.90;99.90
19152;DHT22;9708;53.114;9.388;2024-01-10T13:31:03;2.60;99.90
19152;DHT22;9708;53.114;9.388;2024-01-10T13:33:30;2.70;99.90
19152;DHT22;9708;53.114;9.388;2024-01-10T13:35:57;2.60;99.90
19152;DHT22;9708;53.114;9.388;2024-01-10T13:38:24;2.60;99.90
19152;DHT22;9708;53.114;9.388;2024-01-10T13:40:52;2.10;99.90
19152;DHT22;9708;53.114;9.388;2024-01-10T13:43:18;1.30;99.90
19152;DHT22;9708;53.114;9.388;2024-01-10T13:45:47;0.80;99.90
19152;DHT22;9708;53.114;9.388;2024-01-10T13:48:14;0.50;99.90
19152;DHT22;9708;53.114;9.388;2024-01-10T13:50:41;0.60;99.90
19152;DHT22;9708;53.114;9.388;2024-01-10T13:53:08;0.10;99.90
19152;DHT22;9708;53.114;9.388;2024-01-10T13:55:35;-0.30;99.90
19152;DHT22;9708;53.114;9.388;2024-01-10T13:58:02;-0.40;99.90
19152;DHT22;9708;53.114;9.388;2024-01-10T14:00:30;-0.70;99.90
19152;DHT22;9708;53.114;9.388;2024-01-10T14:02:58;-0.90;99.90
19152;DHT22;9708;53.114;9.388;2024-01-10T14:05:26;-1.00;99.90
19152;DHT22;9708;53.114;9.388;2024-01-10T14:07:53;-1.00;99.90
19152;DHT22;9708;53.114;9.388;2024-01-10T14:10:20;-1.00;99.90
19152;DHT22;9708;53.114;9.388;2024-01-10T14:12:47;-0.90;99.90
19152;DHT22;9708;53.114;9.388;2024-01-10T14:15:14;-0.70;99.90
19152;DHT22;9708;53.114;9.388;2024-01-10T14:17:41;-0.80;99.90
19152;DHT22;9708;53.114;9.388;2024-01-10T14:20:10;-1.10;99.90
19152;DHT22;9708;53.114;9.388;2024-01-10T14:22:39;-1.10;99.90
19152;DHT22;9708;53.114;9.388;2024-01-10T14:25:07;-1.10;99.90
19152;DHT22;9708;53.114;9.388;2024-01-10T14:27:35;-1.20;99.90
19152;DHT22;9708;53.114;9.388;2024-01-10T14:30:05;-1.30;99.90
19152;DHT22;9708;53.114;9.388;2024-01-10T14:32:34;-1.50;99.90
19152;DHT22;9708;53.114;9.388;2024-01-10T14:35:01;-1.50;99.90
19152;DHT22;9708;53.114;9.388;2024-01-10T14:37:29;-1.50;99.90
19152;DHT22;9708;53.114;9.388;2024-01-10T14:39:56;-1.60;99.90
19152;DHT22;9708;53.114;9.388;2024-01-10T14:42:23;-1.30;99.90
19152;DHT22;9708;53.114;9.388;2024-01-10T14:44:50;-1.30;99.90
19152;DHT22;9708;53.114;9.388;2024-01-10T14:47:17;-1.30;99.90
19152;DHT22;9708;53.114;9.388;2024-01-10T14:49:44;-1.40;99.90
19152;DHT22;9708;53.114;9.388;2024-01-10T14:52:11;-1.60;99.90
19152;DHT22;9708;53.114;9.388;2024-01-10T14:54:39;-1.70;99.90
19152;DHT22;9708;53.114;9.388;2024-01-10T14:57:06;-1.70;99.90
19152;DHT22;9708;53.114;9.388;2024-01-10T14:59:34;-1.70;99.90
19152;DHT22;9708;53.114;9.388;2024-01-10T15:02:03;-1.70;99.90
19152;DHT22;9708;53.114;9.388;2024-01-10T15:04:32;-1.80;99.90
19152;DHT22;9708;53.114;9.388;2024-01-10T15:07:03;-1.90;99.90
19152;DHT22;9708;53.114;9.388;2024-01-10T15:09:29;-1.90;99.90
19152;DHT22;9708;53.114;9.388;2024-01-10T15:11:58;-1.90;99.90
19152;DHT22;9708;53.114;9.388;2024-01-10T15:14:24;-2.00;99.90
19152;DHT22;9708;53.114;9.388;2024-01-10T15:16:51;-2.00;99.90
19152;DHT22;9708;53.114;9.388;2024-01-10T15:19:18;-2.00;99.90
19152;DHT22;9708;53.114;9.388;2024-01-10T15:21:45;-2.10;99.90
19152;DHT22;9708;53.114;9.388;2024-01-10T15:24:13;-2.10;99.90
19152;DHT22;9708;53.114;9.388;2024-01-10T15:26:39;-2.00;99.90
19152;DHT22;9708;53.114;9.388;2024-01-10T15:29:08;-2.10;99.90
19152;DHT22;9708;53.114;9.388;2024-01-10T15:31:35;-2.20;99.90
19152;DHT22;9708;53.114;9.388;2024-01-10T15:34:02;-2.30;99.90
19152;DHT22;9708;53.114;9.388;2024-01-10T15:36:29;-2.40;99.90
19152;DHT22;9708;53.114;9.388;2024-01-10T15:38:56;-2.50;99.90
19152;DHT22;9708;53.114;9.388;2024-01-10T15:41:23;-2.50;99.90
19152;DHT22;9708;53.114;9.388;2024-01-10T15:43:49;-2.50;99.90
19152;DHT22;9708;53.114;9.388;2024-01-10T15:46:20;-2.60;99.90
19152;DHT22;9708;53.114;9.388;2024-01-10T15:48:47;-2.60;99.90
19152;DHT22;9708;53.114;9.388;2024-01-10T15:51:14;-2.70;99.90
19152;DHT22;9708;53.114;9.388;2024-01-10T15:53:41;-2.70;99.90
19152;DHT22;9708;53.114;9.388;2024-01-10T15:56:09;-2.80;99.90